createdAt,value
2018-02-07T00:00:57.274Z,87.40
2018-02-07T00:02:59.862Z,87.40
2018-02-07T00:05:03.251Z,88.10
2018-02-07T00:07:06.629Z,87.70
2018-02-07T00:09:09.220Z,87.70
2018-02-07T00:11:12.597Z,87.90
2018-02-07T00:13:15.197Z,87.80
2018-02-07T00:15:18.558Z,87.80
2018-02-07T00:17:21.208Z,87.80
2018-02-07T00:19:24.569Z,87.50
2018-02-07T00:21:27.165Z,87.40
2018-02-07T00:23:29.765Z,87.40
2018-02-07T00:25:32.985Z,87.30
2018-02-07T00:27:36.446Z,87.80
2018-02-07T00:29:39.039Z,87.80
2018-02-07T00:31:41.698Z,87.30
2018-02-07T00:33:44.297Z,87.10
2018-02-07T00:35:46.981Z,87.40
2018-02-07T00:37:50.371Z,86.70
2018-02-07T00:39:53.737Z,87.10
2018-02-07T00:41:56.341Z,87.10
2018-02-07T00:43:59.700Z,86.60
2018-02-07T00:46:02.328Z,86.60
2018-02-07T00:48:04.993Z,86.90
2018-02-07T00:50:08.340Z,86.40
2018-02-07T00:52:11.017Z,86.30
2018-02-07T00:54:13.649Z,86.90
2018-02-07T00:56:16.250Z,87.30
2018-02-07T00:58:18.864Z,87.40
2018-02-07T01:00:21.457Z,86.70
2018-02-07T01:02:24.838Z,87.00
2018-02-07T01:04:28.204Z,87.10
2018-02-07T01:06:30.792Z,87.00
2018-02-07T01:08:33.406Z,86.30
2018-02-07T01:10:36.175Z,87.10
2018-02-07T01:12:38.761Z,86.70
2018-02-07T01:14:41.376Z,86.30
2018-02-07T01:16:43.966Z,86.30
2018-02-07T01:18:46.638Z,86.30
2018-02-07T01:20:49.224Z,85.70
2018-02-07T01:22:52.601Z,86.30
2018-02-07T01:24:55.189Z,85.70
2018-02-07T01:26:57.811Z,87.10
2018-02-07T01:29:00.414Z,87.40
2018-02-07T01:31:03.142Z,87.10
2018-02-07T01:33:05.732Z,87.90
2018-02-07T01:35:08.326Z,87.70
2018-02-07T01:37:10.931Z,86.90
2018-02-07T01:39:13.592Z,87.60
2018-02-07T01:41:16.187Z,87.10
2018-02-07T01:43:19.549Z,86.80
2018-02-07T01:45:22.314Z,86.70
2018-02-07T01:47:24.905Z,86.00
2018-02-07T01:49:27.529Z,86.00
2018-02-07T01:51:30.181Z,86.40
2018-02-07T01:53:32.825Z,86.30
2018-02-07T01:55:36.196Z,86.00
2018-02-07T01:57:38.813Z,86.00
2018-02-07T01:59:41.400Z,86.20
2018-02-07T02:01:44.764Z,86.40
2018-02-07T02:03:47.373Z,86.40
2018-02-07T02:05:50.737Z,86.60
2018-02-07T02:07:53.352Z,86.60
2018-02-07T02:09:55.949Z,86.40
2018-02-07T02:11:58.541Z,86.40
2018-02-07T02:14:01.160Z,86.40
2018-02-07T02:16:04.619Z,86.90
2018-02-07T02:18:07.225Z,86.90
2018-02-07T02:20:10.609Z,87.30
2018-02-07T02:22:13.197Z,87.20
2018-02-07T02:24:16.557Z,87.30
2018-02-07T02:26:19.216Z,87.30
2018-02-07T02:28:21.828Z,87.50
2018-02-07T02:30:24.420Z,86.90
2018-02-07T02:32:27.782Z,86.10
2018-02-07T02:34:30.393Z,85.90
2018-02-07T02:36:39.872Z,86.30
2018-02-07T02:38:42.502Z,86.40
2018-02-07T02:40:45.156Z,86.00
2018-02-07T02:42:48.544Z,86.40
2018-02-07T02:44:51.125Z,86.40
2018-02-07T02:46:54.492Z,86.50
2018-02-07T02:48:57.100Z,86.50
2018-02-07T02:51:00.449Z,87.20
2018-02-07T02:53:03.061Z,87.20
2018-02-07T02:55:06.425Z,87.70
2018-02-07T02:57:09.021Z,87.60
2018-02-07T02:59:12.689Z,88.70
2018-02-07T03:01:15.358Z,88.70
2018-02-07T03:03:18.015Z,88.90
2018-02-07T03:05:20.582Z,89.30
2018-02-07T03:07:23.180Z,90.00
2018-02-07T03:09:25.828Z,90.10
2018-02-07T03:11:28.412Z,89.90
2018-02-07T03:13:31.139Z,89.60
2018-02-07T03:15:33.741Z,89.50
2018-02-07T03:17:36.341Z,89.90
2018-02-07T03:19:38.953Z,89.40
2018-02-07T03:21:41.552Z,88.90
2018-02-07T03:23:44.969Z,89.20
2018-02-07T03:25:47.797Z,89.20
2018-02-07T03:27:50.399Z,88.90
2018-02-07T03:29:53.769Z,88.70
2018-02-07T03:31:56.373Z,88.60
2018-02-07T03:33:59.061Z,89.10
2018-02-07T03:36:01.683Z,89.60
2018-02-07T03:38:04.272Z,90.10
2018-02-07T03:40:06.888Z,90.10
2018-02-07T03:42:09.473Z,90.20
2018-02-07T03:44:12.096Z,90.10
2018-02-07T03:46:14.681Z,90.00
2018-02-07T03:48:18.041Z,89.50
2018-02-07T03:50:20.658Z,89.40
2018-02-07T03:52:24.326Z,89.40
2018-02-07T03:54:26.918Z,89.40
2018-02-07T03:56:30.301Z,88.70
2018-02-07T03:58:32.880Z,88.70
2018-02-07T04:00:35.465Z,89.00
2018-02-07T04:02:38.833Z,88.50
2018-02-07T04:04:41.436Z,88.40
2018-02-07T04:06:44.826Z,88.40
2018-02-07T04:08:48.182Z,88.10
2018-02-07T04:10:50.791Z,88.00
2018-02-07T04:12:54.224Z,88.40
2018-02-07T04:14:56.934Z,88.30
2018-02-07T04:16:59.545Z,88.40
2018-02-07T04:19:02.904Z,88.80
2018-02-07T04:21:05.546Z,88.80
2018-02-07T04:23:08.132Z,88.80
2018-02-07T04:25:10.717Z,88.80
2018-02-07T04:27:13.537Z,89.20
2018-02-07T04:29:16.901Z,88.80
2018-02-07T04:31:19.480Z,88.80
2018-02-07T04:33:22.079Z,89.10
2018-02-07T04:35:25.424Z,88.80
2018-02-07T04:37:28.114Z,88.70
2018-02-07T04:39:30.736Z,88.30
2018-02-07T04:41:34.092Z,88.80
2018-02-07T04:43:36.686Z,88.80
2018-02-07T04:45:40.066Z,88.50
2018-02-07T04:47:43.422Z,88.60
2018-02-07T04:49:46.038Z,88.30
2018-02-07T04:51:49.407Z,88.80
2018-02-07T04:53:52.009Z,88.80
2018-02-07T04:55:55.380Z,88.90
2018-02-07T04:57:58.014Z,88.90
2018-02-07T05:00:00.628Z,88.40
2018-02-07T05:02:03.201Z,88.80
2018-02-07T05:04:05.812Z,88.50
2018-02-07T05:06:08.401Z,87.80
2018-02-07T05:08:11.060Z,88.30
2018-02-07T05:10:13.693Z,88.40
2018-02-07T05:12:16.297Z,88.10
2018-02-07T05:14:19.640Z,88.40
2018-02-07T05:16:22.281Z,88.30
2018-02-07T05:18:24.882Z,89.20
2018-02-07T05:20:27.484Z,89.50
2018-02-07T05:22:30.104Z,89.20
2018-02-07T05:24:32.709Z,89.10
2018-02-07T05:26:35.309Z,89.30
2018-02-07T05:28:37.904Z,89.20
2018-02-07T05:30:41.270Z,88.90
2018-02-07T05:32:43.888Z,88.90
2018-02-07T05:34:46.480Z,89.10
2018-02-07T05:36:49.078Z,89.00
2018-02-07T05:38:51.684Z,89.90
2018-02-07T05:40:54.304Z,88.80
2018-02-07T05:42:56.889Z,88.50
2018-02-07T05:44:59.520Z,88.80
2018-02-07T05:47:02.904Z,88.80
2018-02-07T05:49:06.282Z,88.20
2018-02-07T05:51:08.883Z,88.20
2018-02-07T05:53:12.241Z,88.00
2018-02-07T05:55:14.849Z,87.90
2018-02-07T05:57:18.237Z,87.40
2018-02-07T05:59:21.604Z,87.40
2018-02-07T06:01:24.280Z,87.40
2018-02-07T06:03:26.860Z,87.30
2018-02-07T06:05:29.470Z,87.10
2018-02-07T06:07:32.080Z,87.10
2018-02-07T06:09:34.712Z,87.50
2018-02-07T06:11:38.069Z,88.10
2018-02-07T06:13:40.659Z,88.00
2018-02-07T06:15:44.069Z,87.60
2018-02-07T06:17:47.506Z,87.50
2018-02-07T06:19:50.090Z,87.50
2018-02-07T06:21:53.464Z,87.30
2018-02-07T06:23:56.185Z,87.90
2018-02-07T06:25:58.885Z,87.30
2018-02-07T06:28:02.245Z,87.00
2018-02-07T06:30:04.831Z,87.00
2018-02-07T06:32:07.430Z,87.50
2018-02-07T06:34:10.017Z,87.60
2018-02-07T06:36:12.620Z,87.20
2018-02-07T06:38:15.275Z,87.40
2018-02-07T06:40:17.864Z,87.50
2018-02-07T06:42:20.465Z,87.90
2018-02-07T06:44:23.052Z,88.00
2018-02-07T06:46:26.429Z,88.20
2018-02-07T06:48:29.040Z,88.10
2018-02-07T06:50:31.638Z,88.00
2018-02-07T06:52:34.250Z,87.90
2018-02-07T06:54:36.849Z,87.80
2018-02-07T06:56:40.205Z,88.00
2018-02-07T06:58:42.808Z,88.00
2018-02-07T07:00:46.222Z,88.40
2018-02-07T07:02:48.887Z,88.40
2018-02-07T07:04:52.245Z,88.00
2018-02-07T07:06:54.875Z,87.90
2018-02-07T07:08:57.485Z,88.40
2018-02-07T07:11:00.097Z,87.60
2018-02-07T07:13:03.541Z,87.30
2018-02-07T07:15:06.300Z,87.20
2018-02-07T07:17:08.933Z,87.30
2018-02-07T07:19:11.529Z,87.50
2018-02-07T07:21:14.897Z,87.80
2018-02-07T07:23:18.285Z,87.40
2018-02-07T07:25:20.868Z,87.70
2018-02-07T07:27:24.228Z,87.70
2018-02-07T07:29:26.824Z,87.60
2018-02-07T07:31:29.538Z,87.50
2018-02-07T07:33:32.148Z,87.30
2018-02-07T07:35:34.845Z,87.10
2018-02-07T07:37:37.549Z,87.90
2018-02-07T07:39:41.004Z,86.70
2018-02-07T07:41:43.590Z,86.60
2018-02-07T07:43:46.197Z,87.00
2018-02-07T07:45:49.569Z,86.80
2018-02-07T07:47:52.199Z,86.70
2018-02-07T07:49:54.802Z,87.00
2018-02-07T07:51:57.423Z,86.40
2018-02-07T07:54:00.789Z,87.00
2018-02-07T07:56:03.397Z,87.00
2018-02-07T07:58:06.095Z,85.60
2018-02-07T08:00:08.844Z,85.30
2018-02-07T08:02:11.446Z,85.70
2018-02-07T08:04:14.065Z,85.90
2018-02-07T08:06:16.663Z,85.40
2018-02-07T08:08:19.269Z,85.60
2018-02-07T08:10:21.860Z,85.70
2018-02-07T08:12:24.466Z,86.00
2018-02-07T08:14:27.821Z,86.50
2018-02-07T08:16:30.445Z,86.50
2018-02-07T08:18:33.845Z,86.10
2018-02-07T08:20:37.201Z,86.20
2018-02-07T08:22:39.801Z,86.20
2018-02-07T08:24:43.144Z,85.00
2018-02-07T08:26:45.761Z,85.00
2018-02-07T08:28:49.155Z,84.40
2018-02-07T08:30:52.514Z,84.70
2018-02-07T08:32:55.118Z,84.70
2018-02-07T08:34:57.711Z,84.20
2018-02-07T08:37:00.301Z,84.60
2018-02-07T08:39:02.917Z,84.30
2018-02-07T08:41:05.548Z,85.30
2018-02-07T08:43:08.157Z,85.10
2018-02-07T08:45:10.761Z,84.80
2018-02-07T08:47:13.352Z,84.80
2018-02-07T08:49:15.953Z,84.50
2018-02-07T08:51:18.549Z,84.80
2018-02-07T08:53:21.142Z,83.70
2018-02-07T08:55:25.262Z,84.10
2018-02-07T08:57:27.832Z,84.00
2018-02-07T08:59:31.224Z,84.10
2018-02-07T09:01:33.824Z,84.10
2018-02-07T09:03:37.201Z,82.90
2018-02-07T09:05:40.553Z,82.50
2018-02-07T09:07:44.260Z,82.60
2018-02-07T09:09:46.880Z,82.60
2018-02-07T09:11:50.262Z,83.30
2018-02-07T09:13:53.621Z,83.70
2018-02-07T09:15:56.222Z,83.10
2018-02-07T09:17:58.832Z,82.60
2018-02-07T09:20:01.409Z,82.40
2018-02-07T09:22:04.099Z,82.90
2018-02-07T09:24:06.683Z,81.80
2018-02-07T09:26:09.283Z,82.00
2018-02-07T09:28:11.890Z,82.30
2018-02-07T09:30:15.246Z,82.90
2018-02-07T09:32:17.913Z,82.90
2018-02-07T09:34:20.516Z,82.20
2018-02-07T09:36:23.866Z,84.00
2018-02-07T09:38:26.468Z,83.20
2018-02-07T09:40:29.061Z,83.40
2018-02-07T09:42:32.406Z,82.60
2018-02-07T09:44:35.137Z,82.60
2018-02-07T09:46:38.519Z,82.90
2018-02-07T09:48:41.883Z,82.70
2018-02-07T09:50:44.469Z,82.60
2018-02-07T09:52:47.068Z,82.50
2018-02-07T09:54:50.520Z,82.60
2018-02-07T09:56:53.128Z,82.60
2018-02-07T09:58:56.518Z,82.60
2018-02-07T10:00:59.877Z,82.60
2018-02-07T10:03:02.461Z,82.60
2018-02-07T10:05:08.114Z,83.00
2018-02-07T10:07:10.723Z,82.70
2018-02-07T10:09:14.070Z,83.50
2018-02-07T10:11:17.458Z,83.10
2018-02-07T10:13:20.053Z,83.00
2018-02-07T10:15:22.654Z,82.50
2018-02-07T10:17:26.006Z,81.80
2018-02-07T10:19:28.613Z,81.70
2018-02-07T10:21:31.977Z,82.40
2018-02-07T10:23:34.673Z,82.30
2018-02-07T10:25:38.057Z,81.40
2018-02-07T10:27:40.697Z,81.40
2018-02-07T10:29:43.320Z,81.80
2018-02-07T10:31:46.669Z,81.30
2018-02-07T10:33:49.249Z,81.20
2018-02-07T10:35:51.857Z,82.30
2018-02-07T10:37:55.217Z,82.00
2018-02-07T10:39:58.004Z,81.90
2018-02-07T10:42:00.636Z,81.50
2018-02-07T10:44:03.244Z,82.20
2018-02-07T10:46:05.894Z,81.90
2018-02-07T10:48:08.576Z,81.70
2018-02-07T10:50:11.167Z,81.30
2018-02-07T10:52:14.542Z,80.50
2018-02-07T10:54:17.128Z,80.80
2018-02-07T10:56:19.709Z,80.80
2018-02-07T10:58:22.321Z,81.50
2018-02-07T11:00:25.677Z,80.50
2018-02-07T11:02:28.269Z,80.50
2018-02-07T11:04:30.890Z,82.30
2018-02-07T11:06:33.530Z,81.20
2018-02-07T11:08:36.897Z,81.60
2018-02-07T11:10:39.492Z,81.50
2018-02-07T11:12:42.848Z,80.40
2018-02-07T11:14:45.462Z,80.80
2018-02-07T11:16:48.814Z,80.20
2018-02-07T11:18:51.421Z,80.20
2018-02-07T11:20:54.007Z,79.40
2018-02-07T11:22:57.358Z,81.10
2018-02-07T11:24:59.961Z,81.10
2018-02-07T11:27:02.537Z,82.00
2018-02-07T11:29:05.145Z,80.80
2018-02-07T11:31:07.733Z,80.50
2018-02-07T11:33:10.389Z,79.70
2018-02-07T11:35:13.093Z,79.50
2018-02-07T11:37:15.669Z,79.00
2018-02-07T11:39:18.274Z,79.90
2018-02-07T11:41:20.873Z,79.20
2018-02-07T11:43:24.260Z,78.80
2018-02-07T11:45:27.628Z,78.90
2018-02-07T11:47:30.314Z,78.30
2018-02-07T11:49:32.930Z,77.70
2018-02-07T11:51:35.537Z,77.70
2018-02-07T11:53:38.228Z,78.40
2018-02-07T11:55:41.594Z,78.10
2018-02-07T11:57:44.181Z,78.40
2018-02-07T11:59:46.844Z,78.30
2018-02-07T12:01:49.561Z,78.80
2018-02-07T12:03:52.138Z,78.40
2018-02-07T12:05:55.538Z,77.40
2018-02-07T12:07:58.921Z,78.30
2018-02-07T12:10:01.501Z,78.30
2018-02-07T12:12:04.199Z,77.80
2018-02-07T12:14:07.573Z,77.00
2018-02-07T12:16:10.950Z,77.40
2018-02-07T12:18:13.541Z,77.40
2018-02-07T12:20:16.913Z,78.30
2018-02-07T12:22:19.598Z,78.20
2018-02-07T12:24:22.323Z,77.50
2018-02-07T12:26:24.904Z,76.70
2018-02-07T12:28:27.502Z,77.50
2018-02-07T12:30:30.104Z,77.20
2018-02-07T12:32:32.747Z,76.80
2018-02-07T12:34:35.549Z,76.70
2018-02-07T12:36:38.130Z,76.70
2018-02-07T12:38:41.807Z,76.70
2018-02-07T12:40:44.418Z,76.70
2018-02-07T12:42:47.765Z,76.70
2018-02-07T12:44:51.140Z,77.00
2018-02-07T12:46:53.740Z,77.10
2018-02-07T12:48:56.332Z,77.80
2018-02-07T12:51:00.601Z,76.10
2018-02-07T12:53:03.197Z,76.10
2018-02-07T12:55:06.606Z,75.40
2018-02-07T12:57:09.215Z,75.50
2018-02-07T12:59:11.796Z,75.60
2018-02-07T13:01:14.409Z,74.60
2018-02-07T13:03:16.995Z,74.50
2018-02-07T13:05:19.593Z,75.90
2018-02-07T13:07:23.013Z,75.40
2018-02-07T13:09:25.634Z,75.30
2018-02-07T13:11:28.202Z,75.80
2018-02-07T13:13:30.805Z,76.00
2018-02-07T13:15:34.477Z,76.90
2018-02-07T13:17:37.056Z,77.40
2018-02-07T13:19:39.660Z,77.00
2018-02-07T13:21:43.009Z,78.80
2018-02-07T13:23:45.672Z,78.80
2018-02-07T13:25:48.260Z,79.10
2018-02-07T13:27:50.862Z,80.30
2018-02-07T13:29:54.232Z,79.60
2018-02-07T13:31:56.817Z,79.60
2018-02-07T13:33:59.561Z,79.30
2018-02-07T13:36:02.141Z,79.10
2018-02-07T13:38:05.552Z,79.00
2018-02-07T13:40:08.908Z,78.20
2018-02-07T13:42:11.528Z,78.20
2018-02-07T13:44:14.129Z,78.10
2018-02-07T13:46:17.480Z,78.60
2018-02-07T13:48:20.089Z,78.50
2018-02-07T13:50:23.433Z,78.30
2018-02-07T13:52:26.022Z,78.30
2018-02-07T13:54:28.641Z,77.60
2018-02-07T13:56:32.001Z,77.80
2018-02-07T13:58:34.603Z,77.80
2018-02-07T14:00:43.461Z,77.60
2018-02-07T14:02:46.053Z,77.60
2018-02-07T14:04:48.661Z,78.70
2018-02-07T14:06:51.241Z,79.80
2018-02-07T14:08:54.591Z,78.00
2018-02-07T14:10:57.287Z,78.00
2018-02-07T14:12:59.899Z,78.90
2018-02-07T14:15:02.481Z,78.90
2018-02-07T14:17:05.121Z,78.10
2018-02-07T14:19:08.501Z,78.80
2018-02-07T14:21:11.110Z,78.70
2018-02-07T14:23:13.714Z,78.10
2018-02-07T14:25:16.380Z,78.00
2018-02-07T14:27:18.989Z,78.50
2018-02-07T14:29:21.578Z,78.60
2018-02-07T14:31:24.194Z,78.30
2018-02-07T14:33:26.777Z,78.00
2018-02-07T14:35:29.376Z,77.80
2018-02-07T14:37:31.976Z,78.10
2018-02-07T14:39:34.594Z,77.80
2018-02-07T14:41:37.184Z,78.00
2018-02-07T14:43:40.073Z,78.00
2018-02-07T14:45:42.656Z,78.00
2018-02-07T14:47:45.247Z,78.10
2018-02-07T14:49:47.839Z,77.30
2018-02-07T14:51:51.240Z,78.40
2018-02-07T14:53:54.617Z,77.60
2018-02-07T14:55:57.212Z,77.60
2018-02-07T14:58:00.579Z,77.80
2018-02-07T15:00:03.156Z,77.80
2018-02-07T15:02:05.817Z,78.10
2018-02-07T15:04:08.492Z,77.70
2018-02-07T15:06:11.101Z,78.20
2018-02-07T15:08:14.467Z,78.50
2018-02-07T15:10:17.070Z,78.40
2018-02-07T15:12:20.420Z,78.60
2018-02-07T15:14:23.061Z,78.60
2018-02-07T15:16:25.649Z,78.40
2018-02-07T15:18:28.261Z,78.50
2018-02-07T15:20:30.858Z,78.40
2018-02-07T15:22:34.289Z,78.70
2018-02-07T15:24:36.883Z,78.60
2018-02-07T15:26:39.475Z,78.70
2018-02-07T15:28:42.086Z,78.30
2018-02-07T15:30:44.673Z,78.80
2018-02-07T15:32:47.266Z,78.80
2018-02-07T15:34:49.881Z,79.00
2018-02-07T15:36:52.465Z,79.50
2018-02-07T15:38:55.816Z,81.10
2018-02-07T15:40:58.615Z,81.10
2018-02-07T15:43:01.201Z,80.50
2018-02-07T15:45:04.557Z,80.80
2018-02-07T15:47:07.302Z,80.60
2018-02-07T15:49:09.939Z,80.50
2018-02-07T15:51:12.524Z,80.60
2018-02-07T15:53:15.917Z,79.90
2018-02-07T15:55:19.306Z,80.50
2018-02-07T15:57:22.669Z,81.10
2018-02-07T15:59:25.268Z,81.00
2018-02-07T16:01:28.630Z,79.80
2018-02-07T16:03:31.236Z,79.70
2018-02-07T16:05:33.939Z,79.60
2018-02-07T16:07:36.538Z,79.30
2018-02-07T16:09:39.123Z,79.50
2018-02-07T16:11:41.733Z,79.80
2018-02-07T16:13:44.313Z,79.80
2018-02-07T16:15:47.739Z,79.80
2018-02-07T16:17:50.387Z,79.70
2018-02-07T16:19:53.785Z,80.20
2018-02-07T16:21:57.160Z,79.80
2018-02-07T16:23:59.751Z,79.80
2018-02-07T16:26:03.155Z,79.70
2018-02-07T16:28:05.761Z,79.60
2018-02-07T16:30:08.360Z,80.00
2018-02-07T16:32:10.970Z,80.00
2018-02-07T16:34:14.442Z,79.50
2018-02-07T16:36:17.017Z,79.40
2018-02-07T16:38:19.629Z,79.80
2018-02-07T16:40:22.213Z,80.40
2018-02-07T16:42:24.809Z,81.30
2018-02-07T16:44:27.479Z,80.90
2018-02-07T16:46:30.073Z,80.90
2018-02-07T16:48:32.661Z,80.90
2018-02-07T16:50:35.257Z,81.00
2018-02-07T16:52:38.621Z,80.80
2018-02-07T16:54:41.264Z,80.70
2018-02-07T16:56:43.878Z,80.00
2018-02-07T16:58:47.305Z,80.90
2018-02-07T17:00:49.918Z,80.80
2018-02-07T17:02:52.527Z,81.20
2018-02-07T17:04:55.122Z,81.40
2018-02-07T17:06:57.761Z,80.60
2018-02-07T17:09:00.363Z,80.20
2018-02-07T17:11:03.735Z,80.70
2018-02-07T17:13:06.425Z,80.60
2018-02-07T17:15:09.773Z,81.60
2018-02-07T17:17:12.388Z,81.60
2018-02-07T17:19:15.729Z,82.50
2018-02-07T17:21:18.370Z,82.50
2018-02-07T17:23:20.970Z,83.00
2018-02-07T17:25:23.577Z,82.50
2018-02-07T17:27:26.187Z,82.00
2018-02-07T17:29:29.635Z,81.70
2018-02-07T17:31:32.793Z,81.70
2018-02-07T17:33:35.974Z,81.60
2018-02-07T17:35:38.554Z,82.40
2018-02-07T17:37:41.204Z,82.80
2018-02-07T17:39:44.561Z,82.80
2018-02-07T17:41:47.187Z,82.70
2018-02-07T17:43:50.845Z,82.50
2018-02-07T17:45:53.426Z,82.50
2018-02-07T17:47:56.035Z,83.10
2018-02-07T17:49:58.623Z,83.30
2018-02-07T17:52:02.028Z,82.10
2018-02-07T17:54:04.609Z,82.00
2018-02-07T17:56:07.219Z,81.60
2018-02-07T17:58:09.925Z,82.20
2018-02-07T18:00:12.542Z,82.10
2018-02-07T18:02:15.138Z,82.30
2018-02-07T18:04:17.856Z,82.50
2018-02-07T18:06:20.480Z,82.20
2018-02-07T18:08:23.069Z,81.70
2018-02-07T18:10:25.718Z,81.70
2018-02-07T18:12:28.401Z,82.30
2018-02-07T18:14:31.001Z,81.80
2018-02-07T18:16:34.362Z,82.10
2018-02-07T18:18:36.949Z,82.00
2018-02-07T18:20:39.572Z,82.00
2018-02-07T18:22:42.184Z,82.00
2018-02-07T18:24:44.802Z,82.00
2018-02-07T18:26:47.417Z,82.40
2018-02-07T18:28:50.040Z,81.90
2018-02-07T18:30:53.524Z,82.80
2018-02-07T18:32:56.213Z,82.80
2018-02-07T18:34:59.572Z,83.10
2018-02-07T18:37:02.229Z,83.10
2018-02-07T18:39:04.896Z,83.30
2018-02-07T18:41:07.564Z,83.20
2018-02-07T18:43:10.148Z,83.30
2018-02-07T18:45:12.809Z,83.10
2018-02-07T18:47:15.412Z,83.00
2018-02-07T18:49:18.113Z,83.10
2018-02-07T18:51:20.726Z,82.90
2018-02-07T18:53:23.306Z,82.80
2018-02-07T18:55:26.625Z,83.80
2018-02-07T18:57:29.213Z,83.30
2018-02-07T18:59:31.843Z,83.10
2018-02-07T19:01:34.438Z,83.00
2018-02-07T19:03:37.024Z,83.20
2018-02-07T19:05:39.633Z,82.80
2018-02-07T19:07:42.314Z,82.90
2018-02-07T19:09:45.705Z,84.10
2018-02-07T19:11:48.305Z,84.10
2018-02-07T19:13:50.919Z,84.30
2018-02-07T19:15:53.549Z,84.20
2018-02-07T19:17:56.966Z,84.40
2018-02-07T19:19:59.621Z,84.40
2018-02-07T19:22:02.981Z,84.60
2018-02-07T19:24:05.585Z,84.50
2018-02-07T19:26:08.204Z,85.00
2018-02-07T19:28:10.822Z,84.80
2018-02-07T19:30:14.179Z,84.20
2018-02-07T19:32:16.756Z,84.20
2018-02-07T19:34:19.354Z,84.40
2018-02-07T19:36:22.758Z,84.40
2018-02-07T19:38:26.159Z,84.50
2018-02-07T19:40:28.766Z,84.40
2018-02-07T19:42:31.390Z,84.50
2018-02-07T19:44:34.752Z,84.70
2018-02-07T19:46:37.408Z,85.10
2018-02-07T19:48:40.009Z,84.80
2018-02-07T19:50:42.606Z,85.00
2018-02-07T19:52:45.989Z,84.30
2018-02-07T19:54:48.602Z,84.30
2018-02-07T19:56:51.213Z,84.50
2018-02-07T19:58:53.825Z,84.70
2018-02-07T20:00:57.187Z,84.50
2018-02-07T20:03:00.142Z,84.30
2018-02-07T20:05:02.757Z,84.40
2018-02-07T20:07:05.354Z,85.00
2018-02-07T20:09:08.718Z,85.00
2018-02-07T20:11:11.321Z,84.90
2018-02-07T20:13:14.678Z,84.40
2018-02-07T20:15:17.283Z,84.40
2018-02-07T20:17:20.637Z,84.70
2018-02-07T20:19:23.257Z,84.70
2018-02-07T20:21:25.855Z,85.00
2018-02-07T20:23:28.456Z,85.00
2018-02-07T20:25:31.046Z,84.70
2018-02-07T20:27:33.636Z,84.60
2018-02-07T20:29:36.239Z,84.30
2018-02-07T20:31:38.913Z,84.50
2018-02-07T20:33:41.598Z,84.60
2018-02-07T20:35:44.202Z,84.90
2018-02-07T20:37:46.787Z,84.70
2018-02-07T20:39:49.424Z,84.80
2018-02-07T20:41:52.038Z,84.90
2018-02-07T20:43:54.641Z,84.50
2018-02-07T20:45:58.780Z,84.60
2018-02-07T20:48:01.383Z,84.70
2018-02-07T20:50:03.982Z,84.50
2018-02-07T20:52:06.603Z,84.60
2018-02-07T20:54:09.193Z,84.50
2018-02-07T20:56:11.793Z,84.50
2018-02-07T20:58:14.401Z,85.10
2018-02-07T21:00:17.772Z,85.60
2018-02-07T21:02:20.431Z,85.60
2018-02-07T21:04:23.109Z,85.30
2018-02-07T21:06:25.698Z,84.80
2018-02-07T21:08:28.352Z,85.40
2018-02-07T21:10:30.986Z,85.30
2018-02-07T21:12:33.610Z,85.20
2018-02-07T21:14:36.192Z,85.10
2018-02-07T21:16:38.915Z,85.00
2018-02-07T21:18:41.533Z,84.80
2018-02-07T21:20:44.120Z,84.80
2018-02-07T21:22:46.721Z,85.00
2018-02-07T21:24:50.072Z,85.20
2018-02-07T21:26:52.668Z,85.20
2018-02-07T21:28:55.269Z,84.80
2018-02-07T21:30:58.626Z,84.40
2018-02-07T21:33:01.258Z,84.30
2018-02-07T21:35:03.809Z,85.00
2018-02-07T21:37:06.403Z,84.80
2018-02-07T21:39:09.006Z,84.00
2018-02-07T21:41:11.590Z,84.80
2018-02-07T21:43:14.232Z,84.60
2018-02-07T21:45:16.825Z,85.20
2018-02-07T21:47:19.415Z,84.60
2018-02-07T21:49:22.036Z,84.70
2018-02-07T21:51:24.783Z,83.80
2018-02-07T21:53:27.399Z,85.10
2018-02-07T21:55:29.984Z,85.40
2018-02-07T21:57:32.585Z,85.00
2018-02-07T21:59:35.197Z,85.10
2018-02-07T22:01:38.551Z,85.00
2018-02-07T22:03:41.160Z,85.10
2018-02-07T22:05:44.816Z,84.70
2018-02-07T22:07:47.409Z,84.60
2018-02-07T22:09:50.008Z,85.10
2018-02-07T22:11:53.375Z,85.60
2018-02-07T22:13:55.987Z,85.60
2018-02-07T22:15:58.570Z,85.60
2018-02-07T22:18:01.153Z,86.00
2018-02-07T22:20:03.786Z,85.30
2018-02-07T22:22:06.406Z,84.50
2018-02-07T22:24:09.026Z,84.40
2018-02-07T22:26:11.660Z,83.50
2018-02-07T22:28:14.260Z,83.90
2018-02-07T22:30:16.862Z,84.60
2018-02-07T22:32:20.244Z,85.00
2018-02-07T22:34:22.838Z,85.00
2018-02-07T22:36:26.217Z,84.70
2018-02-07T22:38:28.820Z,83.90
2018-02-07T22:40:31.425Z,83.60
2018-02-07T22:42:35.050Z,83.40
2018-02-07T22:44:37.660Z,83.40
2018-02-07T22:46:40.240Z,83.40
2018-02-07T22:48:42.840Z,83.90
2018-02-07T22:50:46.184Z,82.70
2018-02-07T22:52:49.548Z,81.90
2018-02-07T22:54:52.150Z,81.80
2018-02-07T22:56:55.532Z,81.50
2018-02-07T22:58:58.136Z,81.60
2018-02-07T23:01:01.595Z,83.10
2018-02-07T23:03:04.185Z,83.10
2018-02-07T23:05:07.562Z,82.50
2018-02-07T23:07:10.141Z,82.40
2018-02-07T23:09:12.712Z,82.80
2018-02-07T23:11:15.337Z,83.80
2018-02-07T23:13:17.921Z,84.00
2018-02-07T23:15:20.537Z,83.30
2018-02-07T23:17:23.122Z,83.00
2018-02-07T23:19:26.497Z,83.30
2018-02-07T23:21:29.876Z,83.30
2018-02-07T23:23:32.465Z,83.30
2018-02-07T23:25:35.069Z,83.20
2018-02-07T23:27:38.434Z,83.20
2018-02-07T23:29:41.033Z,83.20
2018-02-07T23:31:44.400Z,82.70
2018-02-07T23:33:46.982Z,82.70
2018-02-07T23:35:49.589Z,83.50
2018-02-07T23:37:52.168Z,83.60
2018-02-07T23:39:54.815Z,83.00
2018-02-07T23:41:58.172Z,82.70
2018-02-07T23:44:00.776Z,82.70
2018-02-07T23:46:04.148Z,83.60
2018-02-07T23:48:06.765Z,83.60
2018-02-07T23:50:09.350Z,83.60
2018-02-07T23:52:11.931Z,84.10
2018-02-07T23:54:14.528Z,83.90
2018-02-07T23:56:17.120Z,83.60
2018-02-07T23:58:19.716Z,83.00
